createdAt,value
2023-06-25T00:00:11.496Z,9.05
2023-06-25T00:00:45.596Z,8.03
2023-06-25T00:01:17.207Z,9.27
2023-06-25T00:01:48.805Z,8.13
2023-06-25T00:02:20.424Z,9.20
2023-06-25T00:02:51.926Z,9.27
2023-06-25T00:03:24.162Z,10.15
2023-06-25T00:03:55.771Z,9.80
2023-06-25T00:04:27.314Z,9.70
2023-06-25T00:04:58.730Z,10.68
2023-06-25T00:05:30.131Z,9.90
2023-06-25T00:06:01.575Z,9.13
2023-06-25T00:06:32.948Z,11.07
2023-06-25T00:07:04.632Z,9.52
2023-06-25T00:07:36.407Z,11.45
2023-06-25T00:08:07.913Z,11.43
2023-06-25T00:08:39.368Z,10.95
2023-06-25T00:09:10.862Z,9.90
2023-06-25T00:09:53.407Z,10.98
2023-06-25T00:10:24.825Z,11.13
2023-06-25T00:10:56.302Z,10.15
2023-06-25T00:11:27.766Z,10.37
2023-06-25T00:11:59.184Z,9.80
2023-06-25T00:12:30.557Z,10.57
2023-06-25T00:13:02.069Z,10.20
2023-06-25T00:13:33.626Z,10.88
2023-06-25T00:14:05.325Z,10.25
2023-06-25T00:14:36.812Z,9.75
2023-06-25T00:15:11.938Z,10.30
2023-06-25T00:15:43.375Z,10.95
2023-06-25T00:16:14.875Z,11.18
2023-06-25T00:16:46.339Z,11.07
2023-06-25T00:17:18.422Z,10.52
2023-06-25T00:17:50.528Z,10.45
2023-06-25T00:18:22.110Z,11.40
2023-06-25T00:18:53.509Z,12.18
2023-06-25T00:19:26.677Z,11.18
2023-06-25T00:19:58.734Z,11.80
2023-06-25T00:20:30.152Z,11.60
2023-06-25T00:21:02.407Z,10.55
2023-06-25T00:21:33.929Z,10.85
2023-06-25T00:22:05.709Z,11.20
2023-06-25T00:22:37.091Z,11.07
2023-06-25T00:23:08.575Z,10.68
2023-06-25T00:23:40.288Z,10.68
2023-06-25T00:24:11.822Z,11.93
2023-06-25T00:24:43.312Z,12.05
2023-06-25T00:25:16.036Z,10.77
2023-06-25T00:25:47.472Z,10.85
2023-06-25T00:26:18.989Z,12.00
2023-06-25T00:26:50.426Z,11.55
2023-06-25T00:27:21.854Z,11.27
2023-06-25T00:27:54.070Z,12.27
2023-06-25T00:28:25.465Z,11.27
2023-06-25T00:28:56.901Z,12.32
2023-06-25T00:29:28.286Z,11.30
2023-06-25T00:30:01.435Z,11.55
2023-06-25T00:30:32.915Z,11.45
2023-06-25T00:31:06.156Z,12.40
2023-06-25T00:31:38.468Z,11.43
2023-06-25T00:32:10.050Z,10.88
2023-06-25T00:32:42.820Z,11.10
2023-06-25T00:33:14.316Z,11.10
2023-06-25T00:33:50.448Z,12.77
2023-06-25T00:34:21.951Z,11.20
2023-06-25T00:34:58.659Z,12.88
2023-06-25T00:35:45.108Z,11.68
2023-06-25T00:36:16.708Z,11.27
2023-06-25T00:36:52.863Z,11.57
2023-06-25T00:37:24.681Z,12.10
2023-06-25T00:37:58.050Z,12.10
2023-06-25T00:38:29.517Z,11.70
2023-06-25T00:39:03.625Z,11.75
2023-06-25T00:39:35.070Z,13.30
2023-06-25T00:40:09.555Z,12.60
2023-06-25T00:40:40.990Z,11.55
2023-06-25T00:41:13.264Z,11.73
2023-06-25T00:41:44.758Z,11.40
2023-06-25T00:42:17.251Z,12.60
2023-06-25T00:42:50.231Z,12.00
2023-06-25T00:43:22.510Z,12.60
2023-06-25T00:43:54.232Z,11.20
2023-06-25T00:44:29.502Z,12.52
2023-06-25T00:45:01.237Z,11.38
2023-06-25T00:45:34.251Z,11.45
2023-06-25T00:46:05.682Z,11.50
2023-06-25T00:46:37.897Z,10.93
2023-06-25T00:47:13.292Z,11.63
2023-06-25T00:47:46.669Z,11.60
2023-06-25T00:48:18.290Z,12.05
2023-06-25T00:48:49.908Z,12.65
2023-06-25T00:49:21.373Z,12.97
2023-06-25T00:49:52.810Z,11.95
2023-06-25T00:50:24.428Z,11.38
2023-06-25T00:51:02.088Z,12.35
2023-06-25T00:51:36.521Z,11.60
2023-06-25T00:52:11.263Z,11.70
2023-06-25T00:52:42.798Z,11.68
2023-06-25T00:53:14.859Z,12.80
2023-06-25T00:53:46.543Z,12.70
2023-06-25T00:54:18.327Z,11.10
2023-06-25T00:54:49.765Z,11.80
2023-06-25T00:55:21.626Z,12.48
2023-06-25T00:55:53.145Z,12.75
2023-06-25T00:56:32.183Z,12.32
2023-06-25T00:57:05.097Z,12.80
2023-06-25T00:57:37.040Z,11.30
2023-06-25T00:58:08.698Z,12.18
2023-06-25T00:58:41.559Z,11.27
2023-06-25T00:59:13.021Z,12.13
2023-06-25T00:59:46.039Z,11.73
2023-06-25T01:00:20.979Z,12.60
2023-06-25T01:00:57.632Z,12.10
2023-06-25T01:01:55.549Z,12.38
2023-06-25T01:02:35.518Z,12.30
2023-06-25T01:03:14.111Z,12.00
2023-06-25T01:03:55.936Z,12.05
2023-06-25T01:04:34.702Z,12.32
2023-06-25T01:05:12.932Z,12.43
2023-06-25T01:06:11.103Z,12.80
2023-06-25T01:06:48.464Z,11.18
2023-06-25T01:07:20.159Z,11.33
2023-06-25T01:07:54.380Z,11.60
2023-06-25T01:08:31.323Z,12.02
2023-06-25T01:09:03.661Z,12.40
2023-06-25T01:09:35.887Z,12.18
2023-06-25T01:10:08.788Z,11.80
2023-06-25T01:10:40.411Z,12.52
2023-06-25T01:11:12.617Z,12.80
2023-06-25T01:12:04.038Z,12.30
2023-06-25T01:12:36.797Z,11.63
2023-06-25T01:13:08.220Z,12.57
2023-06-25T01:13:39.720Z,12.32
2023-06-25T01:14:11.116Z,11.52
2023-06-25T01:14:43.101Z,12.43
2023-06-25T01:15:14.573Z,13.13
2023-06-25T01:15:46.948Z,12.35
2023-06-25T01:16:18.471Z,13.35
2023-06-25T01:16:50.108Z,12.38
2023-06-25T01:17:21.848Z,13.18
2023-06-25T01:17:55.164Z,12.38
2023-06-25T01:18:26.834Z,11.67
2023-06-25T01:19:05.077Z,11.50
2023-06-25T01:19:37.903Z,11.73
2023-06-25T01:20:13.057Z,12.00
2023-06-25T01:20:44.649Z,12.10
2023-06-25T01:21:18.235Z,12.65
2023-06-25T01:21:49.822Z,11.73
2023-06-25T01:22:30.880Z,12.23
2023-06-25T01:23:02.403Z,12.27
2023-06-25T01:23:34.008Z,13.18
2023-06-25T01:24:05.895Z,12.90
2023-06-25T01:24:37.386Z,11.85
2023-06-25T01:25:10.133Z,13.02
2023-06-25T01:25:41.762Z,12.02
2023-06-25T01:26:13.247Z,12.82
2023-06-25T01:26:45.278Z,12.38
2023-06-25T01:27:16.667Z,12.07
2023-06-25T01:27:48.653Z,12.48
2023-06-25T01:28:21.557Z,12.13
2023-06-25T01:28:57.132Z,11.93
2023-06-25T01:29:29.394Z,11.70
2023-06-25T01:30:01.543Z,10.90
2023-06-25T01:30:33.018Z,11.45
2023-06-25T01:31:04.736Z,11.85
2023-06-25T01:31:36.201Z,11.05
2023-06-25T01:32:09.300Z,11.65
2023-06-25T01:32:42.558Z,11.15
2023-06-25T01:33:16.999Z,11.15
2023-06-25T01:33:48.397Z,11.32
2023-06-25T01:34:21.180Z,12.43
2023-06-25T01:34:52.670Z,11.57
2023-06-25T01:35:25.586Z,12.05
2023-06-25T01:35:56.938Z,11.93
2023-06-25T01:36:28.396Z,12.25
2023-06-25T01:36:59.874Z,12.00
2023-06-25T01:37:32.108Z,11.45
2023-06-25T01:38:03.733Z,11.82
2023-06-25T01:38:35.126Z,11.75
2023-06-25T01:39:07.963Z,11.85
2023-06-25T01:39:39.367Z,11.63
2023-06-25T01:40:11.397Z,11.57
2023-06-25T01:40:43.076Z,11.68
2023-06-25T01:41:14.786Z,11.35
2023-06-25T01:41:47.541Z,12.38
2023-06-25T01:42:19.185Z,11.85
2023-06-25T01:42:50.596Z,11.95
2023-06-25T01:43:22.003Z,11.90
2023-06-25T01:43:53.488Z,11.98
2023-06-25T01:44:30.936Z,11.40
2023-06-25T01:45:03.030Z,10.90
2023-06-25T01:45:34.724Z,12.50
2023-06-25T01:46:06.491Z,11.70
2023-06-25T01:46:38.023Z,11.25
2023-06-25T01:47:09.510Z,12.68
2023-06-25T01:47:42.594Z,11.48
2023-06-25T01:48:14.996Z,11.27
2023-06-25T01:48:46.437Z,11.05
2023-06-25T01:49:30.267Z,11.43
2023-06-25T01:50:03.734Z,11.68
2023-06-25T01:50:35.121Z,11.70
2023-06-25T01:51:06.554Z,11.73
2023-06-25T01:51:38.553Z,11.32
2023-06-25T01:52:10.301Z,11.45
2023-06-25T01:52:41.696Z,11.55
2023-06-25T01:53:13.109Z,11.55
2023-06-25T01:53:44.511Z,11.15
2023-06-25T01:54:16.242Z,11.27
2023-06-25T01:54:47.641Z,11.75
2023-06-25T01:55:19.329Z,11.70
2023-06-25T01:55:50.733Z,11.75
2023-06-25T01:56:22.251Z,11.40
2023-06-25T01:56:54.016Z,11.23
2023-06-25T01:57:25.445Z,12.40
2023-06-25T01:57:56.898Z,12.32
2023-06-25T01:58:28.367Z,11.88
2023-06-25T01:58:59.842Z,11.32
2023-06-25T01:59:35.227Z,12.38
2023-06-25T02:00:12.251Z,12.00
2023-06-25T02:00:43.785Z,12.38
2023-06-25T02:01:16.448Z,12.07
2023-06-25T02:01:48.120Z,12.00
2023-06-25T02:02:19.733Z,10.93
2023-06-25T02:02:51.265Z,11.38
2023-06-25T02:03:22.828Z,11.70
2023-06-25T02:03:54.356Z,12.82
2023-06-25T02:04:25.994Z,10.75
2023-06-25T02:04:57.378Z,11.20
2023-06-25T02:05:28.784Z,11.68
2023-06-25T02:06:00.184Z,11.68
2023-06-25T02:06:31.710Z,11.98
2023-06-25T02:07:03.348Z,12.43
2023-06-25T02:07:34.817Z,11.25
2023-06-25T02:08:06.333Z,11.88
2023-06-25T02:08:37.847Z,11.93
2023-06-25T02:09:09.317Z,11.57
2023-06-25T02:09:40.716Z,12.20
2023-06-25T02:10:13.367Z,11.43
2023-06-25T02:10:44.853Z,12.38
2023-06-25T02:11:16.332Z,12.15
2023-06-25T02:11:47.855Z,11.88
2023-06-25T02:12:19.227Z,11.30
2023-06-25T02:12:50.652Z,11.38
2023-06-25T02:13:22.106Z,11.48
2023-06-25T02:13:53.881Z,12.38
2023-06-25T02:14:25.291Z,11.75
2023-06-25T02:14:56.705Z,11.23
2023-06-25T02:15:28.183Z,11.70
2023-06-25T02:15:59.716Z,11.95
2023-06-25T02:16:31.276Z,12.18
2023-06-25T02:17:03.011Z,10.90
2023-06-25T02:17:34.479Z,11.17
2023-06-25T02:18:06.427Z,12.02
2023-06-25T02:18:38.593Z,12.40
2023-06-25T02:19:09.982Z,11.50
2023-06-25T02:19:41.764Z,11.10
2023-06-25T02:20:13.169Z,11.27
2023-06-25T02:20:44.625Z,11.48
2023-06-25T02:21:16.036Z,12.13
2023-06-25T02:21:47.442Z,11.48
2023-06-25T02:22:18.904Z,11.95
2023-06-25T02:22:51.391Z,11.50
2023-06-25T02:23:22.920Z,11.60
2023-06-25T02:23:54.306Z,11.95
2023-06-25T02:24:25.818Z,11.63
2023-06-25T02:24:57.277Z,11.55
2023-06-25T02:25:28.661Z,11.38
2023-06-25T02:26:00.088Z,10.85
2023-06-25T02:26:31.590Z,11.40
2023-06-25T02:27:03.128Z,11.55
2023-06-25T02:27:34.627Z,10.85
2023-06-25T02:28:06.048Z,10.87
2023-06-25T02:28:37.471Z,10.90
2023-06-25T02:29:09.009Z,11.88
2023-06-25T02:29:40.407Z,10.70
2023-06-25T02:30:12.365Z,11.15
2023-06-25T02:30:44.245Z,12.27
2023-06-25T02:31:15.905Z,11.20
2023-06-25T02:31:47.430Z,11.45
2023-06-25T02:32:18.873Z,11.25
2023-06-25T02:32:50.338Z,11.00
2023-06-25T02:33:21.789Z,12.00
2023-06-25T02:33:53.175Z,11.20
2023-06-25T02:34:24.648Z,11.40
2023-06-25T02:34:56.128Z,11.93
2023-06-25T02:35:27.816Z,12.27
2023-06-25T02:35:59.313Z,11.63
2023-06-25T02:36:30.799Z,11.75
2023-06-25T02:37:15.198Z,11.25
2023-06-25T02:37:46.595Z,11.90
2023-06-25T02:38:18.123Z,11.25
2023-06-25T02:38:49.521Z,11.77
2023-06-25T02:39:20.954Z,11.18
2023-06-25T02:39:52.380Z,11.50
2023-06-25T02:40:23.934Z,11.25
2023-06-25T02:40:55.362Z,12.07
2023-06-25T02:41:26.760Z,12.52
2023-06-25T02:41:58.182Z,12.18
2023-06-25T02:42:29.625Z,11.85
2023-06-25T02:43:01.066Z,11.57
2023-06-25T02:43:32.478Z,11.55
2023-06-25T02:44:03.993Z,11.20
2023-06-25T02:44:35.743Z,11.38
2023-06-25T02:45:07.483Z,11.68
2023-06-25T02:45:39.069Z,11.20
2023-06-25T02:46:10.707Z,11.65
2023-06-25T02:46:42.189Z,11.30
2023-06-25T02:47:13.714Z,11.27
2023-06-25T02:47:45.399Z,11.65
2023-06-25T02:48:18.001Z,11.45
2023-06-25T02:48:49.555Z,11.57
2023-06-25T02:49:21.082Z,11.73
2023-06-25T02:49:52.603Z,10.88
2023-06-25T02:50:24.011Z,10.88
2023-06-25T02:50:55.419Z,10.68
2023-06-25T02:51:27.714Z,11.88
2023-06-25T02:51:59.265Z,11.52
2023-06-25T02:52:30.705Z,11.88
2023-06-25T02:53:02.142Z,12.13
2023-06-25T02:53:33.588Z,11.35
2023-06-25T02:54:05.072Z,12.07
2023-06-25T02:54:36.486Z,11.17
2023-06-25T02:55:08.462Z,11.65
2023-06-25T02:55:40.187Z,11.35
2023-06-25T02:56:11.726Z,11.32
2023-06-25T02:56:43.211Z,11.65
2023-06-25T02:57:14.909Z,11.70
2023-06-25T02:57:46.341Z,12.18
2023-06-25T02:58:17.775Z,11.82
2023-06-25T02:58:49.184Z,11.10
2023-06-25T02:59:20.965Z,11.52
2023-06-25T02:59:52.393Z,11.23
2023-06-25T03:00:23.900Z,11.63
2023-06-25T03:00:55.392Z,12.38
2023-06-25T03:01:26.815Z,10.88
2023-06-25T03:01:58.387Z,11.35
2023-06-25T03:02:30.064Z,11.63
2023-06-25T03:03:01.861Z,11.07
2023-06-25T03:03:33.402Z,12.95
2023-06-25T03:04:04.892Z,11.25
2023-06-25T03:04:36.306Z,11.93
2023-06-25T03:05:08.780Z,11.40
2023-06-25T03:05:40.491Z,12.32
2023-06-25T03:06:12.316Z,11.23
2023-06-25T03:06:44.112Z,11.88
2023-06-25T03:07:15.816Z,12.25
2023-06-25T03:07:54.992Z,11.68
2023-06-25T03:08:26.476Z,10.43
2023-06-25T03:08:57.950Z,12.00
2023-06-25T03:09:29.395Z,11.80
2023-06-25T03:10:00.824Z,11.55
2023-06-25T03:10:34.364Z,11.47
2023-06-25T03:11:05.806Z,11.90
2023-06-25T03:11:37.334Z,10.82
2023-06-25T03:12:09.772Z,11.55
2023-06-25T03:12:41.252Z,11.73
2023-06-25T03:13:12.877Z,11.10
2023-06-25T03:13:44.298Z,11.02
2023-06-25T03:14:29.918Z,12.05
2023-06-25T03:15:06.598Z,12.18
2023-06-25T03:15:38.189Z,11.95
2023-06-25T03:16:09.774Z,10.90
2023-06-25T03:16:41.646Z,11.77
2023-06-25T03:17:13.153Z,11.57
2023-06-25T03:17:45.476Z,12.20
2023-06-25T03:18:16.978Z,11.45
2023-06-25T03:18:48.373Z,11.55
2023-06-25T03:19:19.806Z,11.13
2023-06-25T03:19:51.216Z,12.68
2023-06-25T03:20:22.645Z,10.68
2023-06-25T03:20:54.118Z,11.70
2023-06-25T03:21:25.750Z,12.27
2023-06-25T03:21:57.303Z,11.43
2023-06-25T03:22:28.728Z,12.05
2023-06-25T03:23:00.185Z,11.57
2023-06-25T03:23:31.643Z,12.02
2023-06-25T03:24:03.222Z,12.02
2023-06-25T03:24:34.723Z,12.15
2023-06-25T03:25:07.397Z,12.15
2023-06-25T03:25:38.991Z,11.45
2023-06-25T03:26:10.641Z,10.95
2023-06-25T03:26:42.264Z,12.10
2023-06-25T03:27:13.654Z,12.10
2023-06-25T03:27:45.234Z,12.32
2023-06-25T03:28:16.726Z,11.75
2023-06-25T03:28:48.191Z,12.00
2023-06-25T03:29:19.643Z,11.13
2023-06-25T03:29:51.070Z,11.93
2023-06-25T03:30:22.516Z,13.35
2023-06-25T03:30:53.994Z,12.80
2023-06-25T03:31:25.657Z,11.55
2023-06-25T03:31:57.123Z,12.07
2023-06-25T03:32:28.616Z,12.25
2023-06-25T03:33:00.241Z,11.43
2023-06-25T03:33:31.751Z,10.82
2023-06-25T03:34:03.221Z,12.35
2023-06-25T03:34:34.612Z,11.30
2023-06-25T03:35:06.207Z,11.32
2023-06-25T03:35:37.777Z,12.77
2023-06-25T03:36:09.517Z,11.65
2023-06-25T03:36:40.933Z,12.05
2023-06-25T03:37:12.629Z,11.60
2023-06-25T03:37:44.032Z,11.30
2023-06-25T03:38:15.447Z,11.35
2023-06-25T03:38:46.874Z,13.10
2023-06-25T03:39:19.410Z,12.45
2023-06-25T03:39:50.808Z,11.40
2023-06-25T03:40:22.182Z,12.45
2023-06-25T03:40:53.629Z,11.80
2023-06-25T03:41:25.923Z,11.57
2023-06-25T03:41:57.359Z,12.02
2023-06-25T03:42:28.826Z,11.83
2023-06-25T03:43:00.234Z,12.38
2023-06-25T03:43:31.850Z,11.10
2023-06-25T03:44:03.271Z,12.55
2023-06-25T03:44:34.740Z,12.15
2023-06-25T03:45:06.793Z,11.23
2023-06-25T03:45:38.559Z,11.32
2023-06-25T03:46:10.303Z,11.65
2023-06-25T03:46:41.696Z,12.48
2023-06-25T03:47:13.192Z,11.38
2023-06-25T03:47:44.729Z,11.73
2023-06-25T03:48:16.422Z,11.50
2023-06-25T03:48:48.173Z,12.07
2023-06-25T03:49:19.702Z,11.82
2023-06-25T03:49:51.172Z,12.35
2023-06-25T03:50:22.660Z,12.25
2023-06-25T03:50:54.102Z,11.50
2023-06-25T03:51:25.561Z,11.50
2023-06-25T03:51:57.323Z,11.30
2023-06-25T03:52:28.785Z,10.15
2023-06-25T03:53:01.924Z,11.83
2023-06-25T03:53:33.317Z,11.70
2023-06-25T03:54:04.742Z,11.57
2023-06-25T03:54:36.126Z,12.27
2023-06-25T03:55:07.938Z,11.73
2023-06-25T03:55:39.508Z,11.15
2023-06-25T03:56:11.156Z,11.57
2023-06-25T03:56:42.527Z,11.48
2023-06-25T03:57:13.978Z,11.77
2023-06-25T03:57:45.427Z,11.90
2023-06-25T03:58:17.211Z,11.53
2023-06-25T03:58:48.681Z,11.55
2023-06-25T03:59:20.052Z,11.45
2023-06-25T03:59:51.564Z,12.20
2023-06-25T04:00:23.050Z,10.30
2023-06-25T04:00:54.976Z,11.65
2023-06-25T04:01:26.431Z,11.55
2023-06-25T04:01:58.175Z,10.60
2023-06-25T04:02:29.619Z,10.82
2023-06-25T04:03:01.150Z,10.73
2023-06-25T04:03:32.559Z,10.97
2023-06-25T04:04:04.096Z,11.63
2023-06-25T04:04:35.774Z,11.15
2023-06-25T04:05:07.555Z,11.23
2023-06-25T04:05:39.129Z,11.55
2023-06-25T04:06:10.692Z,11.50
2023-06-25T04:06:42.169Z,11.60
2023-06-25T04:07:13.653Z,12.25
2023-06-25T04:07:45.161Z,12.57
2023-06-25T04:08:16.681Z,11.60
2023-06-25T04:08:48.160Z,11.40
2023-06-25T04:09:19.918Z,11.50
2023-06-25T04:09:51.430Z,11.45
2023-06-25T04:10:22.982Z,11.45
2023-06-25T04:10:54.438Z,11.73
2023-06-25T04:11:25.901Z,11.70
2023-06-25T04:11:57.348Z,11.00
2023-06-25T04:12:28.767Z,11.18
2023-06-25T04:13:00.212Z,11.68
2023-06-25T04:13:31.642Z,12.52
2023-06-25T04:14:03.101Z,12.10
2023-06-25T04:14:34.553Z,10.23
2023-06-25T04:15:06.485Z,10.90
2023-06-25T04:15:38.257Z,11.60
2023-06-25T04:16:10.442Z,11.63
2023-06-25T04:16:41.894Z,11.45
2023-06-25T04:17:13.290Z,12.48
2023-06-25T04:17:44.831Z,11.77
2023-06-25T04:18:16.382Z,11.07
2023-06-25T04:18:47.762Z,11.10
2023-06-25T04:19:19.194Z,12.03
2023-06-25T04:19:50.685Z,11.88
2023-06-25T04:20:24.377Z,11.68
2023-06-25T04:20:56.350Z,10.70
2023-06-25T04:21:27.842Z,11.73
2023-06-25T04:21:59.304Z,10.60
2023-06-25T04:22:30.708Z,11.15
2023-06-25T04:23:02.164Z,11.77
2023-06-25T04:23:34.864Z,11.30
2023-06-25T04:24:06.692Z,11.98
2023-06-25T04:24:38.174Z,10.70
2023-06-25T04:25:09.814Z,11.13
2023-06-25T04:25:42.224Z,10.50
2023-06-25T04:26:13.719Z,11.25
2023-06-25T04:26:45.167Z,12.30
2023-06-25T04:27:16.699Z,11.50
2023-06-25T04:27:48.920Z,12.50
2023-06-25T04:28:20.337Z,12.63
2023-06-25T04:28:51.778Z,12.20
2023-06-25T04:29:23.147Z,11.57
2023-06-25T04:29:54.598Z,12.97
2023-06-25T04:30:26.141Z,12.45
2023-06-25T04:30:57.582Z,11.60
2023-06-25T04:31:29.163Z,12.77
2023-06-25T04:32:02.859Z,11.77
2023-06-25T04:32:34.526Z,11.65
2023-06-25T04:33:06.078Z,11.70
2023-06-25T04:33:42.476Z,11.85
2023-06-25T04:34:14.157Z,13.15
2023-06-25T04:34:45.697Z,12.00
2023-06-25T04:35:18.285Z,12.50
2023-06-25T04:35:49.757Z,12.63
2023-06-25T04:36:21.335Z,13.43
2023-06-25T04:36:52.752Z,12.85
2023-06-25T04:37:24.227Z,14.60
2023-06-25T04:37:55.628Z,12.43
2023-06-25T04:38:27.080Z,12.02
2023-06-25T04:38:58.461Z,12.05
2023-06-25T04:39:29.927Z,12.00
2023-06-25T04:40:06.744Z,12.25
2023-06-25T04:40:38.242Z,11.60
2023-06-25T04:41:09.704Z,12.55
2023-06-25T04:41:41.100Z,13.02
2023-06-25T04:42:12.555Z,14.02
2023-06-25T04:42:44.022Z,12.77
2023-06-25T04:43:15.502Z,12.60
2023-06-25T04:43:46.934Z,12.30
2023-06-25T04:44:18.342Z,12.55
2023-06-25T04:44:52.944Z,12.85
2023-06-25T04:45:24.475Z,12.18
2023-06-25T04:45:55.962Z,13.37
2023-06-25T04:46:27.480Z,13.02
2023-06-25T04:46:59.016Z,14.02
2023-06-25T04:47:30.457Z,12.70
2023-06-25T04:48:01.936Z,13.18
2023-06-25T04:48:33.341Z,12.02
2023-06-25T04:49:04.763Z,12.48
2023-06-25T04:49:36.224Z,12.65
2023-06-25T04:50:08.127Z,13.35
2023-06-25T04:50:39.551Z,12.43
2023-06-25T04:51:10.998Z,13.37
2023-06-25T04:51:46.427Z,13.77
2023-06-25T04:52:20.656Z,14.00
2023-06-25T04:52:55.117Z,14.90
2023-06-25T04:53:28.036Z,14.65
2023-06-25T04:53:59.430Z,13.73
2023-06-25T04:54:30.859Z,12.50
2023-06-25T04:55:02.366Z,14.48
2023-06-25T04:55:33.861Z,12.57
2023-06-25T04:56:05.688Z,13.07
2023-06-25T04:56:37.142Z,12.57
2023-06-25T04:57:08.698Z,13.02
2023-06-25T04:57:40.179Z,13.40
2023-06-25T04:58:11.705Z,13.63
2023-06-25T04:58:43.257Z,12.43
2023-06-25T04:59:14.655Z,13.00
2023-06-25T04:59:46.023Z,13.10
2023-06-25T05:00:17.547Z,14.32
2023-06-25T05:00:49.028Z,13.57
2023-06-25T05:01:21.630Z,12.43
2023-06-25T05:01:53.057Z,13.60
2023-06-25T05:02:24.651Z,13.43
2023-06-25T05:02:56.184Z,12.57
2023-06-25T05:03:27.692Z,14.90
2023-06-25T05:03:59.688Z,13.90
2023-06-25T05:04:31.222Z,13.63
2023-06-25T05:05:02.692Z,12.73
2023-06-25T05:05:34.315Z,13.98
2023-06-25T05:06:06.131Z,13.23
2023-06-25T05:06:37.584Z,13.23
2023-06-25T05:07:09.123Z,13.17
2023-06-25T05:07:40.663Z,12.55
2023-06-25T05:08:12.399Z,13.93
2023-06-25T05:08:43.801Z,14.35
2023-06-25T05:09:15.245Z,13.70
2023-06-25T05:09:46.699Z,14.20
2023-06-25T05:10:21.312Z,13.32
2023-06-25T05:10:52.938Z,13.75
2023-06-25T05:11:24.356Z,14.20
2023-06-25T05:11:55.882Z,13.35
2023-06-25T05:12:27.330Z,14.03
2023-06-25T05:13:01.127Z,13.40
2023-06-25T05:13:32.645Z,13.70
2023-06-25T05:14:04.028Z,13.70
2023-06-25T05:14:35.485Z,13.73
2023-06-25T05:15:07.480Z,14.38
2023-06-25T05:15:42.426Z,14.68
2023-06-25T05:16:13.912Z,15.02
2023-06-25T05:16:45.328Z,14.13
2023-06-25T05:17:16.698Z,13.20
2023-06-25T05:17:48.156Z,14.30
2023-06-25T05:18:19.653Z,13.45
2023-06-25T05:18:52.894Z,13.90
2023-06-25T05:19:24.655Z,13.45
2023-06-25T05:19:56.105Z,14.60
2023-06-25T05:20:27.552Z,14.63
2023-06-25T05:20:58.979Z,14.82
2023-06-25T05:21:30.449Z,14.73
2023-06-25T05:22:01.946Z,14.95
2023-06-25T05:22:33.349Z,13.93
2023-06-25T05:23:09.113Z,14.77
2023-06-25T05:23:45.308Z,13.23
2023-06-25T05:24:16.750Z,14.18
2023-06-25T05:24:48.174Z,13.10
2023-06-25T05:25:19.608Z,13.88
2023-06-25T05:25:51.067Z,14.55
2023-06-25T05:26:22.503Z,13.52
2023-06-25T05:26:53.886Z,14.32
2023-06-25T05:27:25.328Z,13.93
2023-06-25T05:27:56.716Z,13.30
2023-06-25T05:28:28.146Z,13.57
2023-06-25T05:29:00.476Z,13.43
2023-06-25T05:29:31.939Z,13.73
2023-06-25T05:30:03.948Z,13.38
2023-06-25T05:30:36.016Z,14.20
2023-06-25T05:31:08.718Z,13.55
2023-06-25T05:31:40.443Z,14.23
2023-06-25T05:32:11.978Z,13.90
2023-06-25T05:32:43.518Z,14.35
2023-06-25T05:33:14.971Z,13.07
2023-06-25T05:33:46.339Z,13.83
2023-06-25T05:34:17.744Z,13.63
2023-06-25T05:34:49.150Z,13.88
2023-06-25T05:35:20.657Z,14.63
2023-06-25T05:35:52.051Z,14.52
2023-06-25T05:36:23.573Z,13.60
2023-06-25T05:36:54.990Z,14.13
2023-06-25T05:37:26.425Z,14.77
2023-06-25T05:37:57.989Z,14.30
2023-06-25T05:38:29.409Z,14.50
2023-06-25T05:39:00.879Z,14.17
2023-06-25T05:39:32.360Z,14.52
2023-06-25T05:40:04.202Z,13.48
2023-06-25T05:40:35.686Z,15.15
2023-06-25T05:41:07.130Z,13.95
2023-06-25T05:41:40.945Z,13.90
2023-06-25T05:42:12.392Z,12.73
2023-06-25T05:42:43.828Z,14.98
2023-06-25T05:43:15.193Z,14.00
2023-06-25T05:43:46.605Z,13.70
2023-06-25T05:44:18.018Z,13.87
2023-06-25T05:44:49.382Z,13.70
2023-06-25T05:45:21.045Z,14.00
2023-06-25T05:45:52.429Z,12.98
2023-06-25T05:46:23.880Z,13.70
2023-06-25T05:46:56.094Z,13.43
2023-06-25T05:47:27.566Z,13.35
2023-06-25T05:47:59.056Z,14.02
2023-06-25T05:48:30.614Z,13.38
2023-06-25T05:49:02.204Z,13.70
2023-06-25T05:49:33.687Z,13.23
2023-06-25T05:50:05.722Z,13.60
2023-06-25T05:50:37.152Z,13.73
2023-06-25T05:51:08.729Z,14.27
2023-06-25T05:51:40.151Z,14.20
2023-06-25T05:52:11.606Z,14.02
2023-06-25T05:52:44.025Z,13.20
2023-06-25T05:53:15.573Z,13.32
2023-06-25T05:53:47.127Z,14.13
2023-06-25T05:54:18.585Z,13.18
2023-06-25T05:54:50.066Z,13.30
2023-06-25T05:55:21.511Z,13.15
2023-06-25T05:55:53.002Z,13.68
2023-06-25T05:56:24.494Z,13.68
2023-06-25T05:56:55.986Z,13.88
2023-06-25T05:57:27.397Z,14.10
2023-06-25T05:57:58.822Z,13.85
2023-06-25T05:58:30.198Z,14.70
2023-06-25T05:59:01.622Z,13.52
2023-06-25T05:59:33.101Z,12.93
2023-06-25T06:00:05.652Z,14.53
2023-06-25T06:00:37.104Z,12.80
2023-06-25T06:01:08.590Z,13.82
2023-06-25T06:01:40.144Z,14.45
2023-06-25T06:02:11.680Z,13.35
2023-06-25T06:02:43.164Z,13.57
2023-06-25T06:03:14.780Z,13.30
2023-06-25T06:03:46.427Z,14.15
2023-06-25T06:04:20.530Z,13.40
2023-06-25T06:04:52.344Z,12.70
2023-06-25T06:05:23.795Z,12.63
2023-06-25T06:05:57.695Z,13.52
2023-06-25T06:06:29.127Z,13.73
2023-06-25T06:07:00.881Z,13.65
2023-06-25T06:07:32.414Z,12.85
2023-06-25T06:08:04.031Z,13.40
2023-06-25T06:08:35.466Z,13.02
2023-06-25T06:09:06.876Z,14.13
2023-06-25T06:09:38.283Z,14.25
2023-06-25T06:10:10.303Z,13.57
2023-06-25T06:10:41.762Z,14.40
2023-06-25T06:11:13.203Z,13.30
2023-06-25T06:11:44.638Z,12.43
2023-06-25T06:12:16.091Z,12.98
2023-06-25T06:12:47.470Z,12.55
2023-06-25T06:13:18.981Z,12.65
2023-06-25T06:13:50.380Z,11.18
2023-06-25T06:14:22.099Z,12.60
2023-06-25T06:14:53.661Z,13.75
2023-06-25T06:15:25.069Z,12.18
2023-06-25T06:15:56.474Z,12.23
2023-06-25T06:16:27.887Z,12.20
2023-06-25T06:16:59.338Z,11.45
2023-06-25T06:17:30.888Z,12.70
2023-06-25T06:18:02.412Z,12.13
2023-06-25T06:18:33.898Z,11.73
2023-06-25T06:19:05.379Z,12.30
2023-06-25T06:19:36.993Z,12.32
2023-06-25T06:20:08.854Z,12.70
2023-06-25T06:20:40.286Z,12.18
2023-06-25T06:21:11.746Z,12.90
2023-06-25T06:21:43.242Z,12.32
2023-06-25T06:22:15.657Z,12.27
2023-06-25T06:22:47.106Z,12.32
2023-06-25T06:23:18.642Z,12.10
2023-06-25T06:23:50.124Z,12.57
2023-06-25T06:24:21.577Z,12.02
2023-06-25T06:24:53.294Z,12.88
2023-06-25T06:25:24.748Z,13.52
2023-06-25T06:25:56.197Z,12.13
2023-06-25T06:26:27.773Z,11.23
2023-06-25T06:27:00.177Z,12.02
2023-06-25T06:27:31.868Z,11.57
2023-06-25T06:28:03.445Z,12.02
2023-06-25T06:28:34.906Z,12.23
2023-06-25T06:29:06.397Z,11.60
2023-06-25T06:29:37.922Z,11.95
2023-06-25T06:30:09.865Z,12.95
2023-06-25T06:30:41.429Z,11.20
2023-06-25T06:31:13.054Z,12.07
2023-06-25T06:31:44.530Z,12.23
2023-06-25T06:32:15.947Z,13.05
2023-06-25T06:32:47.467Z,12.10
2023-06-25T06:33:18.950Z,12.40
2023-06-25T06:33:50.371Z,12.15
2023-06-25T06:34:21.830Z,12.13
2023-06-25T06:34:53.213Z,12.68
2023-06-25T06:35:24.671Z,11.93
2023-06-25T06:35:56.078Z,12.50
2023-06-25T06:36:27.532Z,11.48
2023-06-25T06:36:58.921Z,11.57
2023-06-25T06:37:30.281Z,11.60
2023-06-25T06:38:01.817Z,11.23
2023-06-25T06:38:33.360Z,11.75
2023-06-25T06:39:04.814Z,12.18
2023-06-25T06:39:36.271Z,12.82
2023-06-25T06:40:08.210Z,11.63
2023-06-25T06:40:39.683Z,11.63
2023-06-25T06:41:11.107Z,11.70
2023-06-25T06:41:42.571Z,11.88
2023-06-25T06:42:13.975Z,12.33
2023-06-25T06:42:45.399Z,11.48
2023-06-25T06:43:16.952Z,11.18
2023-06-25T06:43:48.474Z,11.68
2023-06-25T06:44:20.418Z,12.23
2023-06-25T06:44:51.861Z,11.15
2023-06-25T06:45:23.342Z,11.98
2023-06-25T06:45:54.778Z,11.07
2023-06-25T06:46:26.269Z,11.68
2023-06-25T06:46:57.730Z,10.52
2023-06-25T06:47:29.409Z,11.27
2023-06-25T06:48:00.909Z,11.23
2023-06-25T06:48:32.350Z,11.75
2023-06-25T06:49:03.769Z,12.15
2023-06-25T06:49:35.222Z,11.02
2023-06-25T06:50:07.862Z,10.93
2023-06-25T06:50:39.283Z,10.48
2023-06-25T06:51:10.676Z,12.77
2023-06-25T06:51:42.344Z,10.57
2023-06-25T06:52:16.360Z,10.60
2023-06-25T06:52:47.781Z,11.17
2023-06-25T06:53:19.193Z,11.52
2023-06-25T06:53:50.615Z,10.80